Portada
METAR-TAF:

METAR-TAF

Aeroports :

Hermosillo, Mèxic

latitud: 29-04N, longitud: 110-57W, altitud: 211 m

Observació

L'informe es va fer fa 1 hora i 20 minuts, a les 05:40 UTC
Vent calma
Temperatura 9°C
Humitat 57%
Pressió 1016 hPa
Visibilitat: 16.1 km
Cel clar

METAR: MMHO 310540Z 00000KT 10SM SKC 09/01 A3000 RMK SLP166 52010 903 HZY

Hora: 00:00 (07:00 UTC)

Pronòstic

L'informe es va fer fa 2 hores i 1 minuts, a les 04:59 UTC
Pronòstic vàlid del 31 a les 06 UTC al 01 a les 06 UTC
Vent kt del Nord
Visibilitat: 10 km
Cel clar
A partir de les 31 a les 1900 UTC
Vent 10 kt del Oest/Sud-Oest
Visibilitat: 10 km
Núvols disperses a una alçada de 3000 ft
A partir de les 01 a les 0300 UTC
Vent 5 kt del Nord/Nord-Oest
Visibilitat: 10 km
Cel clar

TAF: MMHO 310459Z 3106/0106 00000KT P6SM SKC FM311900 25010KT P6SM SCT030 FM010300 33005KT P6SM SKC

Observacions i pronòstics meteorològics de més de 4000 aeroports (METAR i TAF).

Les estacions disponibles són els punts grocs i vermells al mapa.

Posi el ratolí al punt desitjat per veure el nom de l'estació.

Feu clic per veure les observacions i els pronòstics meteorològics.

Per canviar el mapa: feu clic els botons verds amb una creu de color negre per apropar; al botó verd amb un guió per allunyar la imatge; o en les fletxes verdes per a mapes adjacents.


METAR-TAF: